New Portland, Maine
Current Conditions -  °F | °C
As of 4:55 AM on Thursday 23 Oct 2014 (Local Time) from KWVL Reporting Station
Overcast Overcast  
Wind Chill:   Ceiling: 600
Heat Index:   Visibility: 6mi
Dew Point:   Wind: 17mph
Humidity: 76%   Direction: 30°NNE
Pressure: 29.93"   Gusts: 26mph
Location:  44.88°N, 70.1°W
Report Text: KWVL 230855Z 03015G23KT 6SM OVC006 08/04 A2993 RMK AO1 P0003 60003 57024
Loading
Personal Weather Stations






























Interactive Weather Map
Tropical Storm Tracking
New forecast layout! Learn more

10-Day Weather Forecast

Advertisements
Track Severe Weather on mobile